createdAt,value
2023-05-10T00:01:54.215Z,14.50
2023-05-10T00:04:55.969Z,14.50
2023-05-10T00:07:58.076Z,14.50
2023-05-10T00:11:00.007Z,14.50
2023-05-10T00:14:01.795Z,14.40
2023-05-10T00:17:04.419Z,14.40
2023-05-10T00:20:07.086Z,14.40
2023-05-10T00:23:09.616Z,14.40
2023-05-10T00:26:11.844Z,14.40
2023-05-10T00:29:20.058Z,14.40
2023-05-10T00:32:21.996Z,14.40
2023-05-10T00:35:24.907Z,14.40
2023-05-10T00:38:26.710Z,14.40
2023-05-10T00:41:29.444Z,14.30
2023-05-10T00:44:38.469Z,14.40
2023-05-10T00:47:41.090Z,14.40
2023-05-10T00:50:43.160Z,14.30
2023-05-10T00:53:47.839Z,14.30
2023-05-10T00:56:50.376Z,14.40
2023-05-10T00:59:53.677Z,14.40
2023-05-10T01:02:55.747Z,14.40
2023-05-10T01:05:59.652Z,14.40
2023-05-10T01:09:01.405Z,14.40
2023-05-10T01:12:09.536Z,14.30
2023-05-10T01:15:12.384Z,14.30
2023-05-10T01:18:14.786Z,14.30
2023-05-10T01:21:41.887Z,14.30
2023-05-10T01:24:58.807Z,14.30
2023-05-10T01:28:18.488Z,14.30
2023-05-10T01:32:08.574Z,14.30
2023-05-10T01:35:40.895Z,14.30
2023-05-10T01:38:52.333Z,14.30
2023-05-10T01:42:07.730Z,14.30
2023-05-10T01:45:30.669Z,14.20
2023-05-10T01:48:33.891Z,14.20
2023-05-10T01:51:46.005Z,14.20
2023-05-10T01:54:57.101Z,14.20
2023-05-10T01:58:09.657Z,14.20
2023-05-10T02:01:11.952Z,14.20
2023-05-10T02:04:19.967Z,14.20
2023-05-10T02:07:23.587Z,14.20
2023-05-10T02:10:25.513Z,14.20
2023-05-10T02:13:30.095Z,14.20
2023-05-10T02:16:33.422Z,14.10
2023-05-10T02:19:37.629Z,14.10
2023-05-10T02:22:41.277Z,14.10
2023-05-10T02:25:45.037Z,14.10
2023-05-10T02:28:48.736Z,14.10
2023-05-10T02:31:53.812Z,14.10
2023-05-10T02:34:57.397Z,14.10
2023-05-10T02:38:00.173Z,14.10
2023-05-10T02:41:05.149Z,14.10
2023-05-10T02:44:09.045Z,14.10
2023-05-10T02:47:11.073Z,14.10
2023-05-10T02:50:13.275Z,14.00
2023-05-10T02:53:22.578Z,14.00
2023-05-10T02:56:34.275Z,14.00
2023-05-10T02:59:40.915Z,14.00
2023-05-10T03:02:43.387Z,14.00
2023-05-10T03:05:45.173Z,14.10
2023-05-10T03:08:47.143Z,14.10
2023-05-10T03:12:02.884Z,14.10
2023-05-10T03:15:29.573Z,14.10
2023-05-10T03:19:13.856Z,14.10
2023-05-10T03:22:18.952Z,14.00
2023-05-10T03:25:23.745Z,14.00
2023-05-10T03:28:27.097Z,14.00
2023-05-10T03:31:28.976Z,14.00
2023-05-10T03:34:32.679Z,14.00
2023-05-10T03:37:39.148Z,14.00
2023-05-10T03:40:41.995Z,14.00
2023-05-10T03:43:50.045Z,14.00
2023-05-10T03:46:51.857Z,14.00
2023-05-10T03:49:53.745Z,14.00
2023-05-10T03:52:55.635Z,14.10
2023-05-10T03:56:03.811Z,14.00
2023-05-10T03:59:08.481Z,14.00
2023-05-10T04:02:10.467Z,14.00
2023-05-10T04:05:12.488Z,14.00
2023-05-10T04:08:20.437Z,14.00
2023-05-10T04:11:23.017Z,14.00
2023-05-10T04:14:24.955Z,14.00
2023-05-10T04:17:27.698Z,14.00
2023-05-10T04:20:29.800Z,14.00
2023-05-10T04:23:31.533Z,14.00
2023-05-10T04:26:34.917Z,14.00
2023-05-10T04:29:36.586Z,14.00
2023-05-10T04:32:39.372Z,14.00
2023-05-10T04:35:41.348Z,14.00
2023-05-10T04:38:43.779Z,14.00
2023-05-10T04:41:52.352Z,14.00
2023-05-10T04:44:54.211Z,14.00
2023-05-10T04:47:56.465Z,14.00
2023-05-10T04:50:58.464Z,14.00
2023-05-10T04:54:06.673Z,14.00
2023-05-10T04:57:09.724Z,13.90
2023-05-10T05:00:12.254Z,14.00
2023-05-10T05:03:20.416Z,14.00
2023-05-10T05:06:22.714Z,14.00
2023-05-10T05:09:24.454Z,14.00
2023-05-10T05:12:26.169Z,14.00
2023-05-10T05:15:28.512Z,13.90
2023-05-10T05:18:31.289Z,13.90
2023-05-10T05:21:33.701Z,13.90
2023-05-10T05:24:39.210Z,13.90
2023-05-10T05:27:42.016Z,13.90
2023-05-10T05:30:43.725Z,13.90
2023-05-10T05:33:46.194Z,13.90
2023-05-10T05:36:48.496Z,13.90
2023-05-10T05:39:51.181Z,13.90
2023-05-10T05:42:56.354Z,13.90
2023-05-10T05:45:59.056Z,13.90
2023-05-10T05:49:01.119Z,13.90
2023-05-10T05:52:09.369Z,13.90
2023-05-10T05:55:11.416Z,13.90
2023-05-10T05:58:14.112Z,13.80
2023-05-10T06:01:19.060Z,13.90
2023-05-10T06:04:20.884Z,13.90
2023-05-10T06:07:22.784Z,14.00
2023-05-10T06:10:28.684Z,14.00
2023-05-10T06:13:33.353Z,14.00
2023-05-10T06:16:35.987Z,13.90
2023-05-10T06:19:37.878Z,13.90
2023-05-10T06:22:41.260Z,13.90
2023-05-10T06:25:42.915Z,13.90
2023-05-10T06:28:45.528Z,13.90
2023-05-10T06:31:47.651Z,13.90
2023-05-10T06:34:52.651Z,13.90
2023-05-10T06:37:54.699Z,13.90
2023-05-10T06:40:56.655Z,13.90
2023-05-10T06:43:58.858Z,13.90
2023-05-10T06:47:00.901Z,13.90
2023-05-10T06:50:02.855Z,14.00
2023-05-10T06:53:06.380Z,14.00
2023-05-10T06:56:08.328Z,14.00
2023-05-10T06:59:11.055Z,14.00
2023-05-10T07:02:13.435Z,14.00
2023-05-10T07:05:17.933Z,14.00
2023-05-10T07:08:19.983Z,14.00
2023-05-10T07:11:22.720Z,14.00
2023-05-10T07:14:24.575Z,14.00
2023-05-10T07:17:26.664Z,14.00
2023-05-10T07:20:28.999Z,14.00
2023-05-10T07:23:31.866Z,14.00
2023-05-10T07:26:33.868Z,13.90
2023-05-10T07:29:36.334Z,13.90
2023-05-10T07:32:38.399Z,13.90
2023-05-10T07:35:42.015Z,13.80
2023-05-10T07:38:43.875Z,13.70
2023-05-10T07:41:45.660Z,13.70
2023-05-10T07:44:48.835Z,13.70
2023-05-10T07:47:51.317Z,13.60
2023-05-10T07:50:53.173Z,13.60
2023-05-10T07:53:59.223Z,13.50
2023-05-10T07:57:01.443Z,13.50
2023-05-10T08:00:04.919Z,13.50
2023-05-10T08:03:08.384Z,13.50
2023-05-10T08:06:11.350Z,13.50
2023-05-10T08:09:13.363Z,13.40
2023-05-10T08:12:16.153Z,13.40
2023-05-10T08:15:18.421Z,13.40
2023-05-10T08:18:22.065Z,13.40
2023-05-10T08:21:24.021Z,13.40
2023-05-10T08:24:25.997Z,13.40
2023-05-10T08:27:27.802Z,13.40
2023-05-10T08:30:29.705Z,13.50
2023-05-10T08:33:31.420Z,13.50
2023-05-10T08:36:33.448Z,13.50
2023-05-10T08:39:36.396Z,13.50
2023-05-10T08:42:43.324Z,13.50
2023-05-10T08:45:55.509Z,13.50
2023-05-10T08:49:00.448Z,13.60
2023-05-10T08:52:06.341Z,13.70
2023-05-10T08:55:09.227Z,13.70
2023-05-10T08:58:11.415Z,13.70
2023-05-10T09:01:20.809Z,13.80
2023-05-10T09:04:22.788Z,13.80
2023-05-10T09:07:24.667Z,13.80
2023-05-10T09:10:30.759Z,13.90
2023-05-10T09:13:37.472Z,14.00
2023-05-10T09:16:42.732Z,14.00
2023-05-10T09:19:46.421Z,14.10
2023-05-10T09:22:54.677Z,14.20
2023-05-10T09:26:22.946Z,14.30
2023-05-10T09:29:24.830Z,14.30
2023-05-10T09:32:48.673Z,14.40
2023-05-10T09:35:52.557Z,14.50
2023-05-10T09:38:58.626Z,14.50
2023-05-10T09:42:10.710Z,14.50
2023-05-10T09:45:14.323Z,14.50
2023-05-10T09:48:16.651Z,14.60
2023-05-10T09:51:52.348Z,14.60
2023-05-10T09:54:55.189Z,14.70
2023-05-10T09:58:01.752Z,14.70
2023-05-10T10:01:03.794Z,14.60
2023-05-10T10:04:08.566Z,14.70
2023-05-10T10:07:17.958Z,14.80
2023-05-10T10:10:37.514Z,14.80
2023-05-10T10:13:39.457Z,14.80
2023-05-10T10:16:48.723Z,14.80
2023-05-10T10:20:18.881Z,14.80
2023-05-10T10:23:21.946Z,14.90
2023-05-10T10:26:24.810Z,14.90
2023-05-10T10:29:40.901Z,14.90
2023-05-10T10:32:48.706Z,14.90
2023-05-10T10:35:54.487Z,14.90
2023-05-10T10:39:01.607Z,14.90
2023-05-10T10:42:05.080Z,14.90
2023-05-10T10:45:13.105Z,14.90
2023-05-10T10:48:23.631Z,14.90
2023-05-10T10:51:29.366Z,14.90
2023-05-10T10:54:35.146Z,14.90
2023-05-10T10:58:05.107Z,14.90
2023-05-10T11:01:18.436Z,15.00
2023-05-10T11:04:25.937Z,15.00
2023-05-10T11:07:27.896Z,14.90
2023-05-10T11:10:29.859Z,14.90
2023-05-10T11:13:51.137Z,15.00
2023-05-10T11:16:53.628Z,15.00
2023-05-10T11:20:15.398Z,15.00
2023-05-10T11:23:19.100Z,15.00
2023-05-10T11:26:27.387Z,15.00
2023-05-10T11:29:29.593Z,14.90
2023-05-10T11:32:32.025Z,14.90
2023-05-10T11:35:43.669Z,15.00
2023-05-10T11:38:49.559Z,15.10
2023-05-10T11:41:51.906Z,15.10
2023-05-10T11:44:54.108Z,15.10
2023-05-10T11:47:57.821Z,15.10
2023-05-10T11:51:04.621Z,15.20
2023-05-10T11:54:11.099Z,15.20
2023-05-10T11:57:13.036Z,15.20
2023-05-10T12:00:16.011Z,15.30
2023-05-10T12:03:19.225Z,15.40
2023-05-10T12:06:28.842Z,15.40
2023-05-10T12:09:42.658Z,15.40
2023-05-10T12:12:49.247Z,15.50
2023-05-10T12:15:53.166Z,15.60
2023-05-10T12:18:58.885Z,15.60
2023-05-10T12:22:01.122Z,15.60
2023-05-10T12:25:04.209Z,15.70
2023-05-10T12:28:13.221Z,15.70
2023-05-10T12:31:15.028Z,15.80
2023-05-10T12:34:34.509Z,15.80
2023-05-10T12:37:39.875Z,15.70
2023-05-10T12:40:41.861Z,15.70
2023-05-10T12:43:44.253Z,15.70
2023-05-10T12:46:46.040Z,15.70
2023-05-10T12:49:47.787Z,15.80
2023-05-10T12:52:49.585Z,15.80
2023-05-10T12:55:51.651Z,15.80
2023-05-10T12:58:54.369Z,15.80
2023-05-10T13:01:56.121Z,15.80
2023-05-10T13:04:57.953Z,15.80
2023-05-10T13:07:59.999Z,15.80
2023-05-10T13:11:02.794Z,15.80
2023-05-10T13:14:05.175Z,15.90
2023-05-10T13:17:07.261Z,16.00
2023-05-10T13:20:10.499Z,16.10
2023-05-10T13:23:13.260Z,16.00
2023-05-10T13:26:15.001Z,15.90
2023-05-10T13:29:19.683Z,15.90
2023-05-10T13:32:21.647Z,15.90
2023-05-10T13:35:23.550Z,15.90
2023-05-10T13:38:25.557Z,15.90
2023-05-10T13:41:27.607Z,15.80
2023-05-10T13:44:29.384Z,15.90
2023-05-10T13:47:31.998Z,15.80
2023-05-10T13:50:33.836Z,15.90
2023-05-10T13:53:36.612Z,15.80
2023-05-10T13:56:38.451Z,15.80
2023-05-10T13:59:49.518Z,15.80
2023-05-10T14:02:52.784Z,15.80
2023-05-10T14:05:54.588Z,15.80
2023-05-10T14:08:56.344Z,15.90
2023-05-10T14:11:59.466Z,15.90
2023-05-10T14:15:07.697Z,15.90
2023-05-10T14:18:09.961Z,15.80
2023-05-10T14:21:11.845Z,15.80
2023-05-10T14:24:13.686Z,15.90
2023-05-10T14:27:16.206Z,15.90
2023-05-10T14:30:26.379Z,16.00
2023-05-10T14:33:28.425Z,16.00
2023-05-10T14:36:31.364Z,16.00
2023-05-10T14:39:34.150Z,16.00
2023-05-10T14:42:37.139Z,16.10
2023-05-10T14:45:39.003Z,16.10
2023-05-10T14:48:43.350Z,16.20
2023-05-10T14:51:46.732Z,16.10
2023-05-10T14:54:48.718Z,16.10
2023-05-10T14:57:51.678Z,16.20
2023-05-10T15:00:58.921Z,16.20
2023-05-10T15:04:06.884Z,16.20
2023-05-10T15:07:09.105Z,16.20
2023-05-10T15:10:12.336Z,16.20
2023-05-10T15:13:19.941Z,16.20
2023-05-10T15:16:32.789Z,16.30
2023-05-10T15:19:36.980Z,16.20
2023-05-10T15:22:39.354Z,16.20
2023-05-10T15:25:42.792Z,16.20
2023-05-10T15:28:44.972Z,16.10
2023-05-10T15:31:50.699Z,16.10
2023-05-10T15:34:52.538Z,16.10
2023-05-10T15:37:54.339Z,16.10
2023-05-10T15:40:59.287Z,16.10
2023-05-10T15:44:02.406Z,16.10
2023-05-10T15:47:04.312Z,16.20
2023-05-10T15:50:07.866Z,16.20
2023-05-10T15:53:09.629Z,16.20
2023-05-10T15:56:14.979Z,16.20
2023-05-10T15:59:16.733Z,16.10
2023-05-10T16:02:19.488Z,16.20
2023-05-10T16:05:22.130Z,16.10
2023-05-10T16:08:24.074Z,16.10
2023-05-10T16:11:26.146Z,16.10
2023-05-10T16:14:29.287Z,16.10
2023-05-10T16:17:31.344Z,16.00
2023-05-10T16:20:38.204Z,15.90
2023-05-10T16:23:40.333Z,15.90
2023-05-10T16:26:42.950Z,15.90
2023-05-10T16:29:44.984Z,15.80
2023-05-10T16:32:46.812Z,15.70
2023-05-10T16:35:48.601Z,15.80
2023-05-10T16:38:51.319Z,15.80
2023-05-10T16:41:53.357Z,15.80
2023-05-10T16:44:56.054Z,15.80
2023-05-10T16:47:58.116Z,15.80
2023-05-10T16:51:01.636Z,15.80
2023-05-10T16:54:03.423Z,15.90
2023-05-10T16:57:06.251Z,15.90
2023-05-10T17:00:08.600Z,15.90
2023-05-10T17:03:15.167Z,15.90
2023-05-10T17:06:17.225Z,15.90
2023-05-10T17:09:20.282Z,15.80
2023-05-10T17:12:24.225Z,15.70
2023-05-10T17:15:26.388Z,15.80
2023-05-10T17:18:28.274Z,15.80
2023-05-10T17:21:30.288Z,15.80
2023-05-10T17:24:33.026Z,15.80
2023-05-10T17:27:35.173Z,15.80
2023-05-10T17:30:37.188Z,15.80
2023-05-10T17:33:39.092Z,15.70
2023-05-10T17:36:40.926Z,15.70
2023-05-10T17:39:43.724Z,15.70
2023-05-10T17:42:45.652Z,15.70
2023-05-10T17:45:49.574Z,15.60
2023-05-10T17:48:51.603Z,15.60
2023-05-10T17:51:54.197Z,15.60
2023-05-10T17:54:56.461Z,15.60
2023-05-10T17:58:00.430Z,15.60
2023-05-10T18:01:02.898Z,15.60
2023-05-10T18:04:10.952Z,15.50
2023-05-10T18:07:12.876Z,15.60
2023-05-10T18:10:14.914Z,15.40
2023-05-10T18:13:24.429Z,15.40
2023-05-10T18:16:29.447Z,15.30
2023-05-10T18:19:31.583Z,15.30
2023-05-10T18:22:33.921Z,15.30
2023-05-10T18:25:36.216Z,15.30
2023-05-10T18:28:38.106Z,15.20
2023-05-10T18:31:40.106Z,15.20
2023-05-10T18:34:42.960Z,14.90
2023-05-10T18:37:44.967Z,14.90
2023-05-10T18:40:47.685Z,14.90
2023-05-10T18:43:49.521Z,14.70
2023-05-10T18:46:59.791Z,14.60
2023-05-10T18:50:04.853Z,14.60
2023-05-10T18:53:06.691Z,14.50
2023-05-10T18:56:08.582Z,14.50
2023-05-10T18:59:11.621Z,14.60
2023-05-10T19:02:13.860Z,14.60
2023-05-10T19:05:20.893Z,14.50
2023-05-10T19:08:23.551Z,14.50
2023-05-10T19:11:25.529Z,14.50
2023-05-10T19:14:28.241Z,14.50
2023-05-10T19:17:37.101Z,14.50
2023-05-10T19:20:40.807Z,14.50
2023-05-10T19:23:45.831Z,14.50
2023-05-10T19:26:48.545Z,14.60
2023-05-10T19:29:52.407Z,14.60
2023-05-10T19:32:54.459Z,14.50
2023-05-10T19:35:56.776Z,14.50
2023-05-10T19:38:58.878Z,14.50
2023-05-10T19:42:00.865Z,14.50
2023-05-10T19:45:03.430Z,14.40
2023-05-10T19:48:08.885Z,14.40
2023-05-10T19:51:10.865Z,14.40
2023-05-10T19:54:12.636Z,14.30
2023-05-10T19:57:14.470Z,14.30
2023-05-10T20:00:18.038Z,14.20
2023-05-10T20:03:19.861Z,14.30
2023-05-10T20:06:21.683Z,14.30
2023-05-10T20:09:23.407Z,14.30
2023-05-10T20:12:25.521Z,14.20
2023-05-10T20:15:29.865Z,14.20
2023-05-10T20:18:32.685Z,14.10
2023-05-10T20:21:34.608Z,14.00
2023-05-10T20:24:36.464Z,13.90
2023-05-10T20:27:38.399Z,14.10
2023-05-10T20:30:40.906Z,14.20
2023-05-10T20:33:42.819Z,14.20
2023-05-10T20:36:44.753Z,14.20
2023-05-10T20:39:48.442Z,14.20
2023-05-10T20:42:54.033Z,14.20
2023-05-10T20:45:56.158Z,14.20
2023-05-10T20:48:59.694Z,14.20
2023-05-10T20:52:01.463Z,14.20
2023-05-10T20:55:03.670Z,14.10
2023-05-10T20:58:06.094Z,14.10
2023-05-10T21:01:08.708Z,14.10
2023-05-10T21:04:10.957Z,14.00
2023-05-10T21:07:13.531Z,14.10
2023-05-10T21:10:16.105Z,14.10
2023-05-10T21:13:19.838Z,14.00
2023-05-10T21:16:22.245Z,14.00
2023-05-10T21:19:24.251Z,14.00
2023-05-10T21:22:26.529Z,14.00
2023-05-10T21:25:29.130Z,14.00
2023-05-10T21:28:31.459Z,13.90
2023-05-10T21:31:38.179Z,13.90
2023-05-10T21:34:39.983Z,13.90
2023-05-10T21:37:42.165Z,13.90
2023-05-10T21:40:44.085Z,13.90
2023-05-10T21:43:46.033Z,13.90
2023-05-10T21:46:48.200Z,13.90
2023-05-10T21:49:51.442Z,13.80
2023-05-10T21:52:53.301Z,13.90
2023-05-10T21:55:57.026Z,13.80
2023-05-10T21:58:58.866Z,13.70
2023-05-10T22:02:02.523Z,13.70
2023-05-10T22:05:04.536Z,13.90
2023-05-10T22:08:09.425Z,13.90
2023-05-10T22:11:11.703Z,13.90
2023-05-10T22:14:14.885Z,13.90
2023-05-10T22:17:16.742Z,13.90
2023-05-10T22:20:19.139Z,13.90
2023-05-10T22:23:21.384Z,13.90
2023-05-10T22:26:23.273Z,13.90
2023-05-10T22:29:25.265Z,13.90
2023-05-10T22:32:28.031Z,13.80
2023-05-10T22:35:30.100Z,13.80
2023-05-10T22:38:33.533Z,13.70
2023-05-10T22:41:35.306Z,13.70
2023-05-10T22:44:37.478Z,13.70
2023-05-10T22:47:39.456Z,13.70
2023-05-10T22:50:43.024Z,13.70
2023-05-10T22:53:45.522Z,13.70
2023-05-10T22:56:47.516Z,13.70
2023-05-10T22:59:49.559Z,13.70
2023-05-10T23:02:51.625Z,13.70
2023-05-10T23:05:53.687Z,13.60
2023-05-10T23:09:00.316Z,13.50
2023-05-10T23:12:02.922Z,13.60
2023-05-10T23:15:08.300Z,13.60
2023-05-10T23:18:10.354Z,13.50
2023-05-10T23:21:12.438Z,13.50
2023-05-10T23:24:14.251Z,13.50
2023-05-10T23:27:16.843Z,13.50
2023-05-10T23:30:19.152Z,13.40
2023-05-10T23:33:22.256Z,13.50
2023-05-10T23:36:24.076Z,13.50
2023-05-10T23:39:30.707Z,13.50
2023-05-10T23:42:33.013Z,13.50
2023-05-10T23:45:35.864Z,13.50
2023-05-10T23:48:37.673Z,13.50
2023-05-10T23:51:39.451Z,13.50
2023-05-10T23:54:42.253Z,13.50
2023-05-10T23:57:45.199Z,13.50
